createdAt,value
2019-05-17T00:00:38.080Z,92.66
2019-05-17T00:02:13.305Z,93.06
2019-05-17T00:03:47.966Z,93.06
2019-05-17T00:05:23.161Z,93.35
2019-05-17T00:06:57.817Z,93.37
2019-05-17T00:08:34.949Z,93.37
2019-05-17T00:10:10.215Z,92.73
2019-05-17T00:11:47.353Z,92.73
2019-05-17T00:13:21.825Z,92.32
2019-05-17T00:14:57.031Z,93.69
2019-05-17T00:16:32.857Z,93.69
2019-05-17T00:18:09.040Z,92.52
2019-05-17T00:19:43.756Z,92.58
2019-05-17T00:21:18.960Z,92.58
2019-05-17T00:22:53.664Z,92.96
2019-05-17T00:24:28.912Z,93.22
2019-05-17T00:26:03.613Z,93.22
2019-05-17T00:27:38.877Z,93.48
2019-05-17T00:29:13.712Z,93.48
2019-05-17T00:30:48.916Z,93.92
2019-05-17T00:32:23.662Z,93.92
2019-05-17T00:33:58.883Z,94.39
2019-05-17T00:35:33.585Z,93.86
2019-05-17T00:37:08.795Z,93.83
2019-05-17T00:38:48.341Z,94.44
2019-05-17T00:40:20.693Z,94.70
2019-05-17T00:41:57.281Z,95.39
2019-05-17T00:43:33.331Z,95.51
2019-05-17T00:45:08.557Z,95.51
2019-05-17T00:46:43.899Z,95.21
2019-05-17T00:48:18.605Z,95.47
2019-05-17T00:49:53.825Z,95.46
2019-05-17T00:51:28.449Z,95.43
2019-05-17T00:53:03.652Z,95.64
2019-05-17T00:54:38.376Z,95.64
2019-05-17T00:56:13.982Z,95.02
2019-05-17T00:57:48.629Z,95.02
2019-05-17T00:59:26.187Z,94.53
2019-05-17T01:01:00.227Z,94.53
2019-05-17T01:02:36.344Z,94.20
2019-05-17T01:04:11.189Z,94.12
2019-05-17T01:05:47.345Z,95.04
2019-05-17T01:07:22.241Z,95.21
2019-05-17T01:09:01.909Z,95.53
2019-05-17T01:10:34.016Z,95.53
2019-05-17T01:12:09.254Z,96.20
2019-05-17T01:13:43.900Z,96.20
2019-05-17T01:15:19.406Z,95.89
2019-05-17T01:16:56.358Z,95.51
2019-05-17T01:18:31.327Z,96.05
2019-05-17T01:20:06.904Z,95.19
2019-05-17T01:21:42.167Z,95.19
2019-05-17T01:23:16.917Z,95.55
2019-05-17T01:24:52.113Z,95.55
2019-05-17T01:26:26.868Z,95.55
2019-05-17T01:28:03.087Z,94.63
2019-05-17T01:29:37.736Z,94.33
2019-05-17T01:31:12.949Z,94.33
2019-05-17T01:32:47.612Z,94.27
2019-05-17T01:34:22.853Z,94.58
2019-05-17T01:35:57.539Z,94.31
2019-05-17T01:37:32.738Z,95.16
2019-05-17T01:39:15.224Z,95.16
2019-05-17T01:40:46.337Z,94.66
2019-05-17T01:42:20.742Z,94.82
2019-05-17T01:43:56.916Z,94.19
2019-05-17T01:45:31.788Z,94.60
2019-05-17T01:47:07.523Z,95.17
2019-05-17T01:48:42.462Z,95.17
2019-05-17T01:50:17.858Z,95.38
2019-05-17T01:51:52.519Z,94.90
2019-05-17T01:53:27.705Z,94.53
2019-05-17T01:55:02.388Z,94.41
2019-05-17T01:56:37.762Z,94.22
2019-05-17T01:58:12.417Z,94.22
2019-05-17T01:59:47.625Z,94.72
2019-05-17T02:01:23.239Z,94.90
2019-05-17T02:02:58.498Z,95.14
2019-05-17T02:04:34.413Z,95.27
2019-05-17T02:06:09.652Z,95.42
2019-05-17T02:07:46.393Z,95.42
2019-05-17T02:09:34.792Z,95.55
2019-05-17T02:10:57.769Z,95.62
2019-05-17T02:12:32.993Z,95.84
2019-05-17T02:14:07.717Z,95.93
2019-05-17T02:15:42.948Z,95.94
2019-05-17T02:17:17.600Z,95.77
2019-05-17T02:18:52.878Z,95.75
2019-05-17T02:20:27.650Z,95.56
2019-05-17T02:22:02.822Z,95.57
2019-05-17T02:23:37.464Z,95.33
2019-05-17T02:25:13.758Z,95.86
2019-05-17T02:26:48.495Z,95.52
2019-05-17T02:28:23.699Z,95.36
2019-05-17T02:29:58.601Z,95.32
2019-05-17T02:31:34.474Z,95.32
2019-05-17T02:33:12.427Z,95.47
2019-05-17T02:34:46.406Z,95.79
2019-05-17T02:36:22.857Z,94.96
2019-05-17T02:37:58.007Z,95.01
2019-05-17T02:39:32.981Z,94.48
2019-05-17T02:41:08.304Z,95.16
2019-05-17T02:42:43.427Z,95.22
2019-05-17T02:44:18.922Z,95.07
2019-05-17T02:45:53.715Z,94.87
2019-05-17T02:47:29.008Z,94.90
2019-05-17T02:49:04.133Z,94.65
2019-05-17T02:50:39.331Z,94.93
2019-05-17T02:52:15.050Z,95.21
2019-05-17T02:53:52.652Z,94.56
2019-05-17T02:55:26.645Z,95.09
2019-05-17T02:57:03.276Z,94.95
2019-05-17T02:58:38.182Z,95.08
2019-05-17T03:00:14.461Z,95.21
2019-05-17T03:01:52.487Z,95.21
2019-05-17T03:03:27.001Z,95.29
2019-05-17T03:05:03.998Z,94.89
2019-05-17T03:06:38.555Z,94.42
2019-05-17T03:08:13.285Z,94.89
2019-05-17T03:09:48.569Z,94.68
2019-05-17T03:11:23.271Z,94.58
2019-05-17T03:12:58.479Z,95.02
2019-05-17T03:14:33.216Z,95.02
2019-05-17T03:16:08.481Z,94.33
2019-05-17T03:17:44.211Z,94.02
2019-05-17T03:19:19.490Z,94.02
2019-05-17T03:20:54.165Z,94.22
2019-05-17T03:22:32.885Z,94.22
2019-05-17T03:24:06.050Z,94.89
2019-05-17T03:25:44.005Z,94.82
2019-05-17T03:27:17.837Z,94.27
2019-05-17T03:28:53.797Z,94.68
2019-05-17T03:30:28.749Z,95.16
2019-05-17T03:32:08.720Z,94.67
2019-05-17T03:33:45.975Z,94.36
2019-05-17T03:35:25.778Z,94.57
2019-05-17T03:36:56.929Z,94.57
2019-05-17T03:38:32.699Z,95.24
2019-05-17T03:40:23.657Z,94.87
2019-05-17T03:41:44.382Z,94.82
2019-05-17T03:43:19.097Z,95.04
2019-05-17T03:44:54.390Z,95.03
2019-05-17T03:46:29.091Z,95.11
2019-05-17T03:48:05.332Z,95.11
2019-05-17T03:49:43.720Z,94.52
2019-05-17T03:51:18.095Z,94.62
2019-05-17T03:52:53.722Z,94.94
2019-05-17T03:54:32.247Z,94.90
2019-05-17T03:56:06.023Z,94.88
2019-05-17T03:57:44.037Z,94.91
2019-05-17T03:59:18.661Z,93.52
2019-05-17T04:00:53.851Z,93.52
2019-05-17T04:02:28.509Z,94.38
2019-05-17T04:04:03.723Z,94.42
2019-05-17T04:05:38.407Z,94.42
2019-05-17T04:07:13.630Z,94.10
2019-05-17T04:08:48.321Z,93.62
2019-05-17T04:10:23.532Z,93.46
2019-05-17T04:11:58.144Z,93.87
2019-05-17T04:13:33.910Z,93.89
2019-05-17T04:15:09.372Z,93.67
2019-05-17T04:16:44.599Z,92.87
2019-05-17T04:18:19.246Z,93.23
2019-05-17T04:19:54.473Z,93.42
2019-05-17T04:21:29.194Z,93.18
2019-05-17T04:23:04.514Z,92.87
2019-05-17T04:24:39.244Z,92.97
2019-05-17T04:26:14.493Z,92.37
2019-05-17T04:27:49.224Z,92.37
2019-05-17T04:29:24.437Z,91.70
2019-05-17T04:30:59.108Z,90.90
2019-05-17T04:32:34.462Z,88.07
2019-05-17T04:34:09.090Z,86.30
2019-05-17T04:35:44.291Z,84.28
2019-05-17T04:37:18.952Z,81.87
2019-05-17T04:38:54.196Z,80.10
2019-05-17T04:40:28.856Z,85.83
2019-05-17T04:42:04.545Z,87.83
2019-05-17T04:43:42.258Z,87.83
2019-05-17T04:45:16.251Z,89.40
2019-05-17T04:46:53.635Z,89.92
2019-05-17T04:48:28.875Z,90.40
2019-05-17T04:50:04.246Z,89.03
2019-05-17T04:51:43.513Z,89.34
2019-05-17T04:53:16.163Z,89.34
2019-05-17T04:54:53.719Z,89.09
2019-05-17T04:56:27.780Z,88.69
2019-05-17T04:58:04.317Z,89.06
2019-05-17T04:59:43.178Z,87.89
2019-05-17T05:01:17.199Z,87.27
2019-05-17T05:02:52.747Z,88.12
2019-05-17T05:04:28.158Z,86.42
2019-05-17T05:06:03.486Z,84.81
2019-05-17T05:07:38.855Z,82.88
2019-05-17T05:09:13.593Z,82.88
2019-05-17T05:10:48.855Z,84.94
2019-05-17T05:12:23.486Z,84.27
2019-05-17T05:13:58.743Z,84.24
2019-05-17T05:15:43.904Z,84.24
2019-05-17T05:17:17.800Z,85.21
2019-05-17T05:18:52.505Z,77.38
2019-05-17T05:20:27.738Z,77.38
2019-05-17T05:22:04.342Z,82.23
2019-05-17T05:23:42.280Z,76.56
2019-05-17T05:25:16.690Z,76.56
2019-05-17T05:26:51.939Z,77.11
2019-05-17T05:28:26.597Z,77.59
2019-05-17T05:30:03.119Z,77.59
2019-05-17T05:31:38.929Z,78.85
2019-05-17T05:33:14.140Z,78.85
2019-05-17T05:34:48.798Z,80.88
2019-05-17T05:36:24.118Z,82.61
2019-05-17T05:37:58.804Z,82.61
2019-05-17T05:39:34.015Z,83.31
2019-05-17T05:41:08.752Z,81.66
2019-05-17T05:42:44.029Z,81.66
2019-05-17T05:44:18.684Z,78.94
2019-05-17T05:45:53.903Z,81.72
2019-05-17T05:47:28.577Z,81.72
2019-05-17T05:49:03.853Z,81.69
2019-05-17T05:50:38.520Z,81.69
2019-05-17T05:52:13.769Z,79.44
2019-05-17T05:53:48.415Z,79.44
2019-05-17T05:55:23.647Z,78.39
2019-05-17T05:56:58.445Z,76.95
2019-05-17T05:58:33.721Z,74.48
2019-05-17T06:00:12.771Z,67.92
2019-05-17T06:01:48.134Z,73.11
2019-05-17T06:03:22.786Z,71.66
2019-05-17T06:04:57.982Z,58.69
2019-05-17T06:06:32.622Z,49.83
2019-05-17T06:08:07.828Z,49.83
2019-05-17T06:09:42.689Z,50.16
2019-05-17T06:11:17.869Z,66.80
2019-05-17T06:12:52.594Z,66.80
2019-05-17T06:14:27.912Z,55.26
2019-05-17T06:16:02.978Z,69.47
2019-05-17T06:17:38.179Z,51.93
2019-05-17T06:19:12.863Z,45.77
2019-05-17T06:20:48.066Z,36.67
2019-05-17T06:22:22.904Z,38.36
2019-05-17T06:23:58.257Z,41.86
2019-05-17T06:25:34.171Z,34.67
2019-05-17T06:27:09.586Z,32.62
2019-05-17T06:28:44.221Z,35.37
2019-05-17T06:30:22.002Z,35.72
2019-05-17T06:31:56.635Z,44.30
2019-05-17T06:33:34.820Z,49.98
2019-05-17T06:35:08.594Z,51.61
2019-05-17T06:36:43.794Z,55.31
2019-05-17T06:38:18.453Z,54.70
2019-05-17T06:39:53.724Z,50.33
2019-05-17T06:41:28.377Z,52.20
2019-05-17T06:43:04.168Z,53.66
2019-05-17T06:44:41.612Z,55.85
2019-05-17T06:46:16.125Z,51.59
2019-05-17T06:47:51.864Z,37.79
2019-05-17T06:49:27.137Z,34.60
2019-05-17T06:51:02.585Z,46.07
2019-05-17T06:52:38.039Z,50.82
2019-05-17T06:54:12.782Z,50.13
2019-05-17T06:55:47.962Z,49.35
2019-05-17T06:57:23.304Z,48.94
2019-05-17T06:58:58.692Z,53.89
2019-05-17T07:00:33.444Z,55.82
2019-05-17T07:02:10.444Z,59.72
2019-05-17T07:03:45.230Z,56.82
2019-05-17T07:05:23.916Z,55.70
2019-05-17T07:07:16.299Z,55.16
2019-05-17T07:08:51.006Z,59.42
2019-05-17T07:10:26.380Z,57.42
2019-05-17T07:12:01.028Z,54.99
2019-05-17T07:13:36.306Z,57.37
2019-05-17T07:15:11.494Z,53.32
2019-05-17T07:16:46.688Z,48.54
2019-05-17T07:18:21.380Z,50.10
2019-05-17T07:19:59.690Z,51.49
2019-05-17T07:21:34.736Z,53.71
2019-05-17T07:23:10.783Z,57.60
2019-05-17T07:24:45.796Z,60.73
2019-05-17T07:26:21.093Z,55.70
2019-05-17T07:27:56.050Z,56.94
2019-05-17T07:29:31.265Z,56.20
2019-05-17T07:31:05.905Z,59.87
2019-05-17T07:32:41.458Z,58.46
2019-05-17T07:34:16.170Z,58.60
2019-05-17T07:35:51.392Z,63.18
2019-05-17T07:37:26.119Z,63.45
2019-05-17T07:39:01.311Z,65.27
2019-05-17T07:40:36.405Z,65.66
2019-05-17T07:42:11.602Z,65.81
2019-05-17T07:43:46.338Z,64.98
2019-05-17T07:45:21.635Z,65.78
2019-05-17T07:46:56.315Z,61.93
2019-05-17T07:48:31.645Z,61.29
2019-05-17T07:50:06.432Z,62.00
2019-05-17T07:51:41.644Z,63.55
2019-05-17T07:53:16.395Z,63.73
2019-05-17T07:54:52.685Z,64.09
2019-05-17T07:56:27.340Z,59.92
2019-05-17T07:58:02.571Z,58.67
2019-05-17T07:59:39.590Z,60.74
2019-05-17T08:01:14.126Z,60.63
2019-05-17T08:02:50.476Z,58.90
2019-05-17T08:04:25.719Z,57.96
2019-05-17T08:06:00.418Z,57.55
2019-05-17T08:07:35.763Z,57.65
2019-05-17T08:09:13.798Z,58.23
2019-05-17T08:10:47.476Z,58.30
2019-05-17T08:12:22.173Z,60.51
2019-05-17T08:13:59.775Z,60.80
2019-05-17T08:15:34.666Z,60.92
2019-05-17T08:17:10.280Z,60.80
2019-05-17T08:18:45.017Z,61.82
2019-05-17T08:20:21.264Z,59.93
2019-05-17T08:21:55.985Z,61.26
2019-05-17T08:23:31.197Z,59.05
2019-05-17T08:25:06.213Z,60.49
2019-05-17T08:26:41.430Z,60.44
2019-05-17T08:28:16.079Z,60.84
2019-05-17T08:29:51.285Z,59.68
2019-05-17T08:31:26.899Z,59.56
2019-05-17T08:33:02.097Z,59.20
2019-05-17T08:34:36.760Z,55.70
2019-05-17T08:36:12.032Z,52.45
2019-05-17T08:37:46.751Z,53.81
2019-05-17T08:39:22.115Z,56.12
2019-05-17T08:40:56.767Z,56.90
2019-05-17T08:42:32.351Z,56.72
2019-05-17T08:44:07.071Z,54.92
2019-05-17T08:45:42.292Z,56.63
2019-05-17T08:47:16.930Z,56.46
2019-05-17T08:48:52.126Z,58.57
2019-05-17T08:50:29.264Z,56.37
2019-05-17T08:52:03.892Z,55.22
2019-05-17T08:53:39.894Z,53.40
2019-05-17T08:55:15.308Z,54.82
2019-05-17T08:56:50.448Z,56.69
2019-05-17T08:58:25.670Z,56.58
2019-05-17T09:00:01.045Z,58.62
2019-05-17T09:01:41.414Z,55.87
2019-05-17T09:03:14.546Z,57.59
2019-05-17T09:04:49.948Z,57.34
2019-05-17T09:06:24.597Z,57.99
2019-05-17T09:08:00.154Z,57.03
2019-05-17T09:09:35.828Z,54.21
2019-05-17T09:11:11.124Z,55.87
2019-05-17T09:12:45.770Z,56.68
2019-05-17T09:14:21.463Z,56.37
2019-05-17T09:15:56.251Z,56.50
2019-05-17T09:17:31.542Z,57.26
2019-05-17T09:19:06.204Z,54.07
2019-05-17T09:20:42.536Z,53.30
2019-05-17T09:22:17.183Z,54.84
2019-05-17T09:23:52.418Z,56.56
2019-05-17T09:25:27.138Z,55.21
2019-05-17T09:27:02.668Z,56.52
2019-05-17T09:28:39.379Z,55.86
2019-05-17T09:30:14.594Z,56.21
2019-05-17T09:32:22.596Z,57.04
2019-05-17T09:34:00.159Z,56.57
2019-05-17T09:35:34.152Z,57.57
2019-05-17T09:37:09.931Z,59.62
2019-05-17T09:38:45.862Z,57.27
2019-05-17T09:40:21.137Z,56.36
2019-05-17T09:41:56.115Z,60.24
2019-05-17T09:43:31.390Z,58.32
2019-05-17T09:45:06.509Z,58.68
2019-05-17T09:46:41.809Z,57.37
2019-05-17T09:48:19.459Z,59.82
2019-05-17T09:49:53.866Z,60.24
2019-05-17T09:51:30.296Z,58.03
2019-05-17T09:53:05.670Z,59.69
2019-05-17T09:54:45.016Z,61.05
2019-05-17T09:56:17.232Z,59.83
2019-05-17T09:57:51.868Z,59.96
2019-05-17T09:59:27.162Z,57.29
2019-05-17T10:01:01.814Z,58.70
2019-05-17T10:02:39.920Z,58.71
2019-05-17T10:04:14.137Z,58.18
2019-05-17T10:05:49.671Z,60.11
2019-05-17T10:07:24.439Z,59.58
2019-05-17T10:09:00.252Z,59.29
2019-05-17T10:10:34.917Z,58.99
2019-05-17T10:12:10.126Z,58.81
2019-05-17T10:13:44.770Z,60.05
2019-05-17T10:15:20.685Z,58.95
2019-05-17T10:16:55.619Z,60.70
2019-05-17T10:18:31.111Z,59.23
2019-05-17T10:20:06.341Z,60.15
2019-05-17T10:21:41.686Z,59.36
2019-05-17T10:23:16.468Z,58.29
2019-05-17T10:24:51.656Z,60.17
2019-05-17T10:26:26.333Z,58.36
2019-05-17T10:28:01.536Z,57.61
2019-05-17T10:29:36.185Z,58.45
2019-05-17T10:31:12.225Z,56.78
2019-05-17T10:32:50.603Z,55.70
2019-05-17T10:34:25.190Z,56.11
2019-05-17T10:36:00.461Z,58.63
2019-05-17T10:37:36.215Z,57.73
2019-05-17T10:39:10.854Z,55.07
2019-05-17T10:40:46.069Z,55.90
2019-05-17T10:42:20.920Z,57.75
2019-05-17T10:43:57.286Z,56.94
2019-05-17T10:45:31.931Z,59.02
2019-05-17T10:47:07.209Z,57.85
2019-05-17T10:48:41.878Z,57.87
2019-05-17T10:50:17.390Z,57.41
2019-05-17T10:51:52.118Z,54.89
2019-05-17T10:53:29.585Z,52.63
2019-05-17T10:55:03.931Z,53.83
2019-05-17T10:56:39.146Z,53.20
2019-05-17T10:58:13.791Z,55.39
2019-05-17T10:59:49.884Z,53.02
2019-05-17T11:01:24.837Z,51.92
2019-05-17T11:03:00.584Z,53.94
2019-05-17T11:04:35.253Z,50.91
2019-05-17T11:06:11.110Z,52.97
2019-05-17T11:07:45.889Z,53.32
2019-05-17T11:09:21.080Z,52.84
2019-05-17T11:10:55.724Z,55.26
2019-05-17T11:12:30.922Z,53.93
2019-05-17T11:14:05.641Z,55.76
2019-05-17T11:15:42.019Z,53.89
2019-05-17T11:17:16.682Z,56.84
2019-05-17T11:18:51.885Z,56.54
2019-05-17T11:20:26.714Z,57.53
2019-05-17T11:22:01.916Z,59.02
2019-05-17T11:23:36.568Z,60.04
2019-05-17T11:25:12.015Z,59.61
2019-05-17T11:26:46.650Z,60.18
2019-05-17T11:28:21.838Z,59.25
2019-05-17T11:29:56.505Z,60.32
2019-05-17T11:31:31.722Z,59.37
2019-05-17T11:33:06.359Z,60.24
2019-05-17T11:34:41.552Z,60.15
2019-05-17T11:36:16.218Z,60.81
2019-05-17T11:37:51.440Z,61.57
2019-05-17T11:39:26.098Z,60.58
2019-05-17T11:41:19.568Z,58.89
2019-05-17T11:42:37.738Z,59.51
2019-05-17T11:44:12.996Z,59.86
2019-05-17T11:45:47.646Z,59.86
2019-05-17T11:47:22.848Z,59.26
2019-05-17T11:48:57.498Z,60.13
2019-05-17T11:50:32.770Z,59.41
2019-05-17T11:52:07.507Z,59.57
2019-05-17T11:53:42.734Z,61.14
2019-05-17T11:55:17.529Z,60.30
2019-05-17T11:56:52.762Z,58.32
2019-05-17T11:58:27.451Z,58.87
2019-05-17T12:00:02.685Z,58.54
2019-05-17T12:01:37.684Z,57.64
2019-05-17T12:03:13.828Z,58.57
2019-05-17T12:04:48.500Z,58.28
2019-05-17T12:06:23.715Z,58.63
2019-05-17T12:07:59.315Z,58.15
2019-05-17T12:09:37.291Z,58.32
2019-05-17T12:11:10.900Z,57.99
2019-05-17T12:12:46.108Z,59.63
2019-05-17T12:14:20.749Z,58.96
2019-05-17T12:15:55.982Z,60.46
2019-05-17T12:17:30.662Z,58.85
2019-05-17T12:19:05.947Z,60.51
2019-05-17T12:20:40.683Z,60.05
2019-05-17T12:22:15.986Z,59.96
2019-05-17T12:23:50.631Z,60.58
2019-05-17T12:25:25.822Z,59.90
2019-05-17T12:27:00.758Z,58.97
2019-05-17T12:28:36.999Z,57.86
2019-05-17T12:30:12.220Z,56.49
2019-05-17T12:31:47.436Z,58.01
2019-05-17T12:33:22.084Z,55.24
2019-05-17T12:34:57.295Z,55.67
2019-05-17T12:36:31.972Z,54.78
2019-05-17T12:38:07.174Z,56.04
2019-05-17T12:39:41.813Z,55.39
2019-05-17T12:41:17.078Z,55.44
2019-05-17T12:42:51.739Z,53.70
2019-05-17T12:44:26.947Z,53.04
2019-05-17T12:46:01.966Z,53.42
2019-05-17T12:47:37.383Z,52.85
2019-05-17T12:49:12.037Z,53.81
2019-05-17T12:50:47.322Z,53.64
2019-05-17T12:52:21.947Z,55.83
2019-05-17T12:53:57.149Z,54.12
2019-05-17T12:55:41.536Z,54.81
2019-05-17T12:57:16.729Z,54.41
2019-05-17T12:58:51.363Z,55.28
2019-05-17T13:00:26.746Z,55.52
2019-05-17T13:02:01.392Z,54.77
2019-05-17T13:03:36.597Z,53.74
2019-05-17T13:05:12.207Z,54.66
2019-05-17T13:06:47.399Z,54.62
2019-05-17T13:08:23.098Z,53.66
2019-05-17T13:09:58.327Z,55.73
2019-05-17T13:11:32.952Z,54.98
2019-05-17T13:13:09.759Z,57.10
2019-05-17T13:14:44.592Z,55.37
2019-05-17T13:16:19.795Z,55.17
2019-05-17T13:17:54.444Z,56.10
2019-05-17T13:19:29.713Z,55.54
2019-05-17T13:21:04.431Z,55.27
2019-05-17T13:22:39.621Z,57.56
2019-05-17T13:24:14.273Z,55.62
2019-05-17T13:25:49.509Z,56.75
2019-05-17T13:27:24.168Z,56.30
2019-05-17T13:28:59.370Z,55.52
2019-05-17T13:30:34.053Z,55.84
2019-05-17T13:32:09.285Z,54.26
2019-05-17T13:33:43.943Z,53.39
2019-05-17T13:35:19.239Z,54.43
2019-05-17T13:36:53.878Z,54.54
2019-05-17T13:38:29.129Z,55.22
2019-05-17T13:40:03.868Z,55.25
2019-05-17T13:41:39.103Z,54.56
2019-05-17T13:43:13.889Z,53.97
2019-05-17T13:44:50.243Z,55.55
2019-05-17T13:46:32.655Z,53.93
2019-05-17T13:48:01.797Z,55.67
2019-05-17T13:49:36.501Z,55.21
2019-05-17T13:51:11.698Z,56.15
2019-05-17T13:52:47.416Z,56.08
2019-05-17T13:54:22.610Z,55.57
2019-05-17T13:55:57.362Z,56.53
2019-05-17T13:57:32.596Z,57.11
2019-05-17T13:59:07.267Z,57.53
2019-05-17T14:00:42.885Z,55.88
2019-05-17T14:02:17.647Z,54.30
2019-05-17T14:03:52.940Z,55.08
2019-05-17T14:05:27.693Z,54.67
2019-05-17T14:07:03.029Z,53.74
2019-05-17T14:08:37.740Z,55.25
2019-05-17T14:10:26.154Z,53.90
2019-05-17T14:11:49.546Z,54.64
2019-05-17T14:13:24.762Z,56.15
2019-05-17T14:14:59.426Z,55.35
2019-05-17T14:16:34.903Z,56.19
2019-05-17T14:18:09.601Z,57.50
2019-05-17T14:19:44.763Z,57.15
2019-05-17T14:21:19.419Z,57.33
2019-05-17T14:22:54.626Z,56.85
2019-05-17T14:24:29.264Z,58.05
2019-05-17T14:26:04.576Z,58.24
2019-05-17T14:27:39.218Z,57.78
2019-05-17T14:29:14.561Z,57.90
2019-05-17T14:30:49.245Z,58.34
2019-05-17T14:32:24.431Z,58.44
2019-05-17T14:33:59.129Z,58.14
2019-05-17T14:35:34.313Z,58.28
2019-05-17T14:37:09.008Z,57.08
2019-05-17T14:38:44.196Z,58.56
2019-05-17T14:40:18.916Z,59.01
2019-05-17T14:41:54.121Z,59.21
2019-05-17T14:43:31.648Z,59.13
2019-05-17T14:45:05.831Z,59.40
2019-05-17T14:46:40.463Z,58.51
2019-05-17T14:48:15.747Z,58.90
2019-05-17T14:49:51.272Z,59.00
2019-05-17T14:51:26.650Z,58.72
2019-05-17T14:53:01.331Z,58.77
2019-05-17T14:54:36.550Z,58.77
2019-05-17T14:56:11.205Z,57.63
2019-05-17T14:57:46.407Z,57.63
2019-05-17T14:59:21.048Z,57.99
2019-05-17T15:00:56.476Z,58.73
2019-05-17T15:02:31.207Z,59.42
2019-05-17T15:04:06.544Z,59.42
2019-05-17T15:05:41.193Z,59.70
2019-05-17T15:07:16.415Z,58.61
2019-05-17T15:08:51.056Z,58.38
2019-05-17T15:10:26.279Z,57.37
2019-05-17T15:12:00.961Z,55.90
2019-05-17T15:13:37.588Z,55.78
2019-05-17T15:15:12.685Z,55.99
2019-05-17T15:16:50.957Z,55.13
2019-05-17T15:18:25.637Z,55.13
2019-05-17T15:20:00.861Z,55.14
2019-05-17T15:21:36.980Z,55.14
2019-05-17T15:23:12.193Z,55.65
2019-05-17T15:24:46.824Z,55.57
2019-05-17T15:26:22.097Z,55.67
2019-05-17T15:27:56.759Z,56.95
2019-05-17T15:29:32.008Z,57.26
2019-05-17T15:31:06.805Z,57.66
2019-05-17T15:32:42.058Z,57.06
2019-05-17T15:34:16.687Z,56.75
2019-05-17T15:35:51.868Z,57.75
2019-05-17T15:37:26.530Z,57.33
2019-05-17T15:39:01.755Z,56.56
2019-05-17T15:40:38.162Z,56.92
2019-05-17T15:42:13.396Z,56.98
2019-05-17T15:43:48.025Z,56.85
2019-05-17T15:45:23.218Z,56.85
2019-05-17T15:46:57.958Z,56.81
2019-05-17T15:48:33.215Z,56.81
2019-05-17T15:50:09.267Z,56.26
2019-05-17T15:51:44.485Z,54.69
2019-05-17T15:53:19.167Z,54.10
2019-05-17T15:54:54.377Z,54.10
2019-05-17T15:56:29.041Z,53.47
2019-05-17T15:58:04.338Z,52.99
2019-05-17T15:59:39.030Z,53.88
2019-05-17T16:01:14.216Z,53.29
2019-05-17T16:02:49.918Z,53.73
2019-05-17T16:04:25.126Z,54.20
2019-05-17T16:05:59.774Z,54.30
2019-05-17T16:07:35.108Z,53.80
2019-05-17T16:09:09.848Z,54.37
2019-05-17T16:10:45.134Z,55.16
2019-05-17T16:12:19.964Z,55.48
2019-05-17T16:13:55.277Z,55.48
2019-05-17T16:15:29.951Z,56.26
2019-05-17T16:17:05.329Z,56.70
2019-05-17T16:18:39.993Z,56.44
2019-05-17T16:20:16.986Z,56.30
2019-05-17T16:21:51.867Z,55.61
2019-05-17T16:23:27.085Z,56.43
2019-05-17T16:25:01.965Z,55.86
2019-05-17T16:26:37.218Z,56.23
2019-05-17T16:28:12.001Z,56.02
2019-05-17T16:29:52.249Z,56.02
2019-05-17T16:31:27.521Z,55.29
2019-05-17T16:33:03.306Z,55.29
2019-05-17T16:34:38.581Z,54.74
2019-05-17T16:36:13.248Z,55.12
2019-05-17T16:37:48.501Z,55.41
2019-05-17T16:39:23.155Z,55.04
2019-05-17T16:40:58.348Z,55.85
2019-05-17T16:42:33.026Z,56.00
2019-05-17T16:44:08.401Z,56.36
2019-05-17T16:45:43.074Z,56.76
2019-05-17T16:47:18.285Z,55.86
2019-05-17T16:48:52.922Z,57.06
2019-05-17T16:50:29.195Z,56.96
2019-05-17T16:52:03.892Z,56.72
2019-05-17T16:53:39.111Z,56.49
2019-05-17T16:55:14.847Z,56.40
2019-05-17T16:56:50.043Z,56.52
2019-05-17T16:58:24.725Z,56.03
2019-05-17T16:59:59.918Z,56.03
2019-05-17T17:01:34.607Z,56.52
2019-05-17T17:03:09.874Z,56.00
2019-05-17T17:04:44.560Z,56.41
2019-05-17T17:06:19.799Z,56.41
2019-05-17T17:07:54.593Z,56.43
2019-05-17T17:09:29.867Z,56.23
2019-05-17T17:11:04.599Z,56.83
2019-05-17T17:12:39.800Z,57.11
2019-05-17T17:14:14.508Z,57.40
2019-05-17T17:15:49.713Z,57.40
2019-05-17T17:17:24.417Z,57.13
2019-05-17T17:19:00.722Z,57.61
2019-05-17T17:20:35.437Z,57.61
2019-05-17T17:22:10.630Z,57.48
2019-05-17T17:25:55.953Z,57.64
2019-05-17T17:27:31.209Z,57.38
2019-05-17T17:29:05.936Z,57.93
2019-05-17T17:30:41.187Z,57.18
2019-05-17T17:32:21.512Z,57.75
2019-05-17T17:33:52.793Z,56.96
2019-05-17T17:35:27.464Z,57.38
2019-05-17T17:37:02.666Z,57.74
2019-05-17T17:38:37.305Z,58.29
2019-05-17T17:40:13.049Z,58.62
2019-05-17T17:41:47.704Z,58.51
2019-05-17T17:43:23.041Z,58.62
2019-05-17T17:44:57.686Z,58.55
2019-05-17T17:46:32.950Z,59.32
2019-05-17T17:48:07.673Z,59.74
2019-05-17T17:49:42.877Z,59.96
2019-05-17T17:51:17.596Z,60.10
2019-05-17T17:52:53.144Z,59.96
2019-05-17T17:54:27.808Z,60.33
2019-05-17T17:56:02.977Z,60.55
2019-05-17T17:57:37.610Z,60.55
2019-05-17T17:59:12.809Z,61.08
2019-05-17T18:00:47.465Z,61.09
2019-05-17T18:02:24.276Z,61.02
2019-05-17T18:03:59.002Z,60.97
2019-05-17T18:05:34.205Z,60.75
2019-05-17T18:07:08.848Z,60.97
2019-05-17T18:08:45.143Z,61.07
2019-05-17T18:10:25.333Z,61.30
2019-05-17T18:12:00.600Z,61.03
2019-05-17T18:13:35.241Z,61.03
2019-05-17T18:15:11.404Z,61.04
2019-05-17T18:16:46.032Z,61.70
2019-05-17T18:18:21.233Z,61.82
2019-05-17T18:19:55.898Z,61.79
2019-05-17T18:21:32.141Z,62.13
2019-05-17T18:23:06.985Z,62.13
2019-05-17T18:24:42.266Z,62.34
2019-05-17T18:26:16.994Z,62.64
2019-05-17T18:27:53.257Z,62.49
2019-05-17T18:29:27.884Z,63.40
2019-05-17T18:31:03.198Z,63.58
2019-05-17T18:32:37.906Z,63.60
2019-05-17T18:34:13.096Z,64.01
2019-05-17T18:35:47.770Z,64.53
2019-05-17T18:37:22.963Z,64.89
2019-05-17T18:38:57.820Z,65.43
2019-05-17T18:40:32.973Z,65.74
2019-05-17T18:42:07.631Z,66.06
2019-05-17T18:43:42.903Z,66.54
2019-05-17T18:45:17.539Z,66.96
2019-05-17T18:46:52.762Z,67.12
2019-05-17T18:48:27.485Z,67.48
2019-05-17T18:50:02.764Z,67.85
2019-05-17T18:51:37.426Z,67.96
2019-05-17T18:53:16.711Z,68.25
2019-05-17T18:54:49.005Z,68.53
2019-05-17T18:56:24.269Z,69.32
2019-05-17T18:57:58.920Z,69.32
2019-05-17T18:59:35.091Z,69.33
2019-05-17T19:01:09.876Z,69.69
2019-05-17T19:02:45.140Z,70.06
2019-05-17T19:04:20.918Z,70.33
2019-05-17T19:05:56.128Z,70.41
2019-05-17T19:07:32.291Z,71.16
2019-05-17T19:09:07.870Z,71.29
2019-05-17T19:10:42.528Z,71.43
2019-05-17T19:12:17.766Z,71.43
2019-05-17T19:13:52.434Z,72.03
2019-05-17T19:15:27.642Z,71.97
2019-05-17T19:17:02.304Z,71.97
2019-05-17T19:18:37.577Z,72.89
2019-05-17T19:20:12.578Z,72.89
2019-05-17T19:21:47.840Z,73.58
2019-05-17T19:23:25.657Z,73.52
2019-05-17T19:25:00.475Z,73.76
2019-05-17T19:26:36.332Z,74.17
2019-05-17T19:28:11.622Z,74.45
2019-05-17T19:29:46.282Z,75.09
2019-05-17T19:31:21.547Z,74.88
2019-05-17T19:32:56.189Z,74.88
2019-05-17T19:34:37.039Z,74.96
2019-05-17T19:36:11.728Z,74.96
2019-05-17T19:37:46.945Z,74.88
2019-05-17T19:39:21.888Z,75.59
2019-05-17T19:40:57.109Z,75.30
2019-05-17T19:42:31.815Z,75.40
2019-05-17T19:44:07.183Z,75.70
2019-05-17T19:45:41.894Z,76.76
2019-05-17T19:47:17.180Z,76.73
2019-05-17T19:48:51.832Z,77.00
2019-05-17T19:50:27.174Z,77.30
2019-05-17T19:52:01.854Z,77.30
2019-05-17T19:53:37.097Z,78.37
2019-05-17T19:55:13.228Z,78.37
2019-05-17T19:56:48.583Z,78.75
2019-05-17T19:58:23.323Z,78.68
2019-05-17T19:59:58.520Z,78.68
2019-05-17T20:01:33.252Z,79.15
2019-05-17T20:03:08.468Z,79.54
2019-05-17T20:04:43.109Z,79.54
2019-05-17T20:06:18.458Z,79.78
2019-05-17T20:07:53.141Z,80.08
2019-05-17T20:09:28.489Z,80.23
2019-05-17T20:11:03.169Z,80.39
2019-05-17T20:12:38.472Z,80.51
2019-05-17T20:14:13.146Z,80.51
2019-05-17T20:15:48.413Z,81.35
2019-05-17T20:17:23.086Z,81.49
2019-05-17T20:18:58.300Z,81.49
2019-05-17T20:20:33.104Z,81.17
2019-05-17T20:22:08.393Z,81.17
2019-05-17T20:23:43.778Z,81.42
2019-05-17T20:25:19.375Z,81.31
2019-05-17T20:26:54.040Z,81.31
2019-05-17T20:28:29.441Z,82.14
2019-05-17T20:30:04.607Z,82.03